Pagina principale
METAR-TAF:

METAR-TAF

Aeroporti :

Szolnok, Ungheria

latitudine: 47-07N, longitudine: 020-14E, altezza: 89 m

Osservazione

Il bollettino è stato emesso 28 minuti fa, alle 20:15 UTC
Vento 6 kt da ovest/sud-ovest
Temperature 17°C
Umidità 72%
Pressione 1005 hPa
Visibilità 10 km o più
nessuna nube inferiore a 1500 m e nessun cumulonembo

METAR: LHSN 252015Z 25006KT CAVOK 17/12 Q1005 NOSIG RMK BLU

Ora: 22:43 (20:43 UTC)

Previsione

Il bollettino è stato emesso 28 minuti fa, alle 20:15 UTC
Previsione valida dal 25 alle 21 UTC al 26 alle 06 UTC
Vento 5 kt da ovest
Visibilità 10 km o più
nessuna nube inferiore a 1500 m e nessun cumulonembo
Evoluzione graduale
dal 26 alle 04 UTC al 26 alle 06 UTC
Vento 7 kt da nord-ovest

TAF: LHSN 252015Z 2521/2606 26005KT CAVOK BECMG 2604/2606 31007KT

Osservazioni e previsioni meteorologiche di più di 4000 aeroporti (messaggi METAR e TAF).

Le stazioni disponibili sono rappresentate dai dischi gialli e rossi sulla carta.

Puntare il mouse per vedere il nome della stazione.

Clicca sopra per visualizzare le osservazioni e previsioni meteorologiche.

Per cambiare la mappa : fare clic sui pulsanti verdi con una croce nera per ingrandire, il pulsante verde con un trattino per diminuire, o sulla freccia verde per le mappe adiacenti.


METAR-TAF: